sensor_id;sensor_type;location;lat;lon;timestamp;temperature;humidity
23550;DHT22;11953;49.010;8.608;2022-07-15T00:00:18;20.40;85.40
23550;DHT22;11953;49.010;8.608;2022-07-15T00:03:04;20.20;87.00
23550;DHT22;11953;49.010;8.608;2022-07-15T00:05:51;19.80;89.00
23550;DHT22;11953;49.010;8.608;2022-07-15T00:08:38;19.40;90.90
23550;DHT22;11953;49.010;8.608;2022-07-15T00:11:26;19.40;92.00
23550;DHT22;11953;49.010;8.608;2022-07-15T00:14:12;19.40;92.90
23550;DHT22;11953;49.010;8.608;2022-07-15T00:16:59;18.80;94.80
23550;DHT22;11953;49.010;8.608;2022-07-15T00:19:46;18.60;96.50
23550;DHT22;11953;49.010;8.608;2022-07-15T00:22:33;18.60;97.90
23550;DHT22;11953;49.010;8.608;2022-07-15T00:25:20;18.60;98.80
23550;DHT22;11953;49.010;8.608;2022-07-15T00:28:08;18.70;99.40
23550;DHT22;11953;49.010;8.608;2022-07-15T00:30:55;18.70;99.40
23550;DHT22;11953;49.010;8.608;2022-07-15T00:33:42;18.80;99.60
23550;DHT22;11953;49.010;8.608;2022-07-15T00:36:29;19.00;99.60
23550;DHT22;11953;49.010;8.608;2022-07-15T00:39:16;19.20;99.30
23550;DHT22;11953;49.010;8.608;2022-07-15T00:42:03;19.30;99.20
23550;DHT22;11953;49.010;8.608;2022-07-15T00:44:51;19.00;99.90
23550;DHT22;11953;49.010;8.608;2022-07-15T00:47:37;18.70;99.90
23550;DHT22;11953;49.010;8.608;2022-07-15T00:50:27;18.50;99.90
23550;DHT22;11953;49.010;8.608;2022-07-15T00:53:17;18.30;99.90
23550;DHT22;11953;49.010;8.608;2022-07-15T00:56:08;18.30;99.90
23550;DHT22;11953;49.010;8.608;2022-07-15T00:58:57;18.40;99.90
23550;DHT22;11953;49.010;8.608;2022-07-15T01:01:47;18.30;99.90
23550;DHT22;11953;49.010;8.608;2022-07-15T01:04:34;18.30;99.90
23550;DHT22;11953;49.010;8.608;2022-07-15T01:07:22;18.00;99.90
23550;DHT22;11953;49.010;8.608;2022-07-15T01:10:09;17.80;99.90
23550;DHT22;11953;49.010;8.608;2022-07-15T01:12:55;17.60;99.90
23550;DHT22;11953;49.010;8.608;2022-07-15T01:15:46;17.50;99.90
23550;DHT22;11953;49.010;8.608;2022-07-15T01:18:35;17.50;99.90
23550;DHT22;11953;49.010;8.608;2022-07-15T01:21:25;17.40;99.90
23550;DHT22;11953;49.010;8.608;2022-07-15T01:24:14;17.40;99.90
23550;DHT22;11953;49.010;8.608;2022-07-15T01:27:07;17.30;99.90
23550;DHT22;11953;49.010;8.608;2022-07-15T01:29:54;17.20;99.90
23550;DHT22;11953;49.010;8.608;2022-07-15T01:32:43;17.10;99.90
23550;DHT22;11953;49.010;8.608;2022-07-15T01:35:30;17.00;99.90
23550;DHT22;11953;49.010;8.608;2022-07-15T01:38:18;17.00;99.90
23550;DHT22;11953;49.010;8.608;2022-07-15T01:41:09;17.10;99.90
23550;DHT22;11953;49.010;8.608;2022-07-15T01:43:57;17.10;99.90
23550;DHT22;11953;49.010;8.608;2022-07-15T01:46:44;17.20;99.90
23550;DHT22;11953;49.010;8.608;2022-07-15T01:49:33;17.40;99.90
23550;DHT22;11953;49.010;8.608;2022-07-15T01:52:41;17.40;99.90
23550;DHT22;11953;49.010;8.608;2022-07-15T01:55:29;17.30;99.90
23550;DHT22;11953;49.010;8.608;2022-07-15T01:58:17;17.10;99.90
23550;DHT22;11953;49.010;8.608;2022-07-15T02:01:04;16.90;99.90
23550;DHT22;11953;49.010;8.608;2022-07-15T02:03:52;16.90;99.90
23550;DHT22;11953;49.010;8.608;2022-07-15T02:06:39;17.00;99.90
23550;DHT22;11953;49.010;8.608;2022-07-15T02:09:27;17.00;99.90
23550;DHT22;11953;49.010;8.608;2022-07-15T02:12:15;17.10;99.90
23550;DHT22;11953;49.010;8.608;2022-07-15T02:15:09;17.00;99.90
23550;DHT22;11953;49.010;8.608;2022-07-15T02:18:01;16.90;99.90
23550;DHT22;11953;49.010;8.608;2022-07-15T02:20:48;16.70;99.90
23550;DHT22;11953;49.010;8.608;2022-07-15T02:23:35;16.50;99.90
23550;DHT22;11953;49.010;8.608;2022-07-15T02:26:22;16.20;99.90
23550;DHT22;11953;49.010;8.608;2022-07-15T02:29:10;16.20;99.90
23550;DHT22;11953;49.010;8.608;2022-07-15T02:31:57;16.30;99.90
23550;DHT22;11953;49.010;8.608;2022-07-15T02:34:44;16.40;99.90
23550;DHT22;11953;49.010;8.608;2022-07-15T02:37:31;16.30;99.90
23550;DHT22;11953;49.010;8.608;2022-07-15T02:40:19;16.30;99.90
23550;DHT22;11953;49.010;8.608;2022-07-15T02:43:06;16.20;99.90
23550;DHT22;11953;49.010;8.608;2022-07-15T02:45:56;16.30;99.90
23550;DHT22;11953;49.010;8.608;2022-07-15T02:48:44;16.40;99.90
23550;DHT22;11953;49.010;8.608;2022-07-15T02:51:32;16.30;99.90
23550;DHT22;11953;49.010;8.608;2022-07-15T02:54:19;16.50;99.90
23550;DHT22;11953;49.010;8.608;2022-07-15T02:57:07;16.70;99.90
23550;DHT22;11953;49.010;8.608;2022-07-15T02:59:54;16.60;99.90
23550;DHT22;11953;49.010;8.608;2022-07-15T03:02:43;16.40;99.90
23550;DHT22;11953;49.010;8.608;2022-07-15T03:05:31;16.20;99.90
23550;DHT22;11953;49.010;8.608;2022-07-15T03:08:19;16.00;99.90
23550;DHT22;11953;49.010;8.608;2022-07-15T03:11:07;15.90;99.90
23550;DHT22;11953;49.010;8.608;2022-07-15T03:13:57;15.80;99.90
23550;DHT22;11953;49.010;8.608;2022-07-15T03:16:48;15.80;99.90
23550;DHT22;11953;49.010;8.608;2022-07-15T03:19:38;16.00;99.90
23550;DHT22;11953;49.010;8.608;2022-07-15T03:22:26;16.20;99.90
23550;DHT22;11953;49.010;8.608;2022-07-15T03:25:14;16.10;99.90
23550;DHT22;11953;49.010;8.608;2022-07-15T03:28:01;16.10;99.90
23550;DHT22;11953;49.010;8.608;2022-07-15T03:30:52;16.00;99.90
23550;DHT22;11953;49.010;8.608;2022-07-15T03:33:39;16.00;99.90
23550;DHT22;11953;49.010;8.608;2022-07-15T03:36:28;15.90;99.90
23550;DHT22;11953;49.010;8.608;2022-07-15T03:39:15;15.70;99.90
23550;DHT22;11953;49.010;8.608;2022-07-15T03:42:01;15.60;99.90
23550;DHT22;11953;49.010;8.608;2022-07-15T03:44:48;15.70;99.90
23550;DHT22;11953;49.010;8.608;2022-07-15T03:47:36;15.60;99.90
23550;DHT22;11953;49.010;8.608;2022-07-15T03:50:25;15.50;99.90
23550;DHT22;11953;49.010;8.608;2022-07-15T03:53:15;15.50;99.90
23550;DHT22;11953;49.010;8.608;2022-07-15T03:56:01;15.40;99.90
23550;DHT22;11953;49.010;8.608;2022-07-15T03:58:48;15.30;99.90
23550;DHT22;11953;49.010;8.608;2022-07-15T04:01:35;15.40;99.90
23550;DHT22;11953;49.010;8.608;2022-07-15T04:04:22;15.50;99.90
23550;DHT22;11953;49.010;8.608;2022-07-15T04:07:09;15.70;99.90
23550;DHT22;11953;49.010;8.608;2022-07-15T04:09:57;16.30;99.90
23550;DHT22;11953;49.010;8.608;2022-07-15T04:12:44;17.10;99.90
23550;DHT22;11953;49.010;8.608;2022-07-15T04:15:33;17.60;99.90
23550;DHT22;11953;49.010;8.608;2022-07-15T04:18:20;17.80;99.90
23550;DHT22;11953;49.010;8.608;2022-07-15T04:21:09;17.70;99.90
23550;DHT22;11953;49.010;8.608;2022-07-15T04:23:57;17.70;99.90
23550;DHT22;11953;49.010;8.608;2022-07-15T04:26:45;17.50;99.90
23550;DHT22;11953;49.010;8.608;2022-07-15T04:29:34;17.40;99.90
23550;DHT22;11953;49.010;8.608;2022-07-15T04:32:23;17.30;99.90
23550;DHT22;11953;49.010;8.608;2022-07-15T04:35:13;17.40;99.90
23550;DHT22;11953;49.010;8.608;2022-07-15T04:38:00;17.60;99.90
23550;DHT22;11953;49.010;8.608;2022-07-15T04:40:47;17.60;99.90
23550;DHT22;11953;49.010;8.608;2022-07-15T04:43:38;17.70;99.90
23550;DHT22;11953;49.010;8.608;2022-07-15T04:46:31;17.80;99.90
23550;DHT22;11953;49.010;8.608;2022-07-15T04:49:39;17.90;99.90
23550;DHT22;11953;49.010;8.608;2022-07-15T04:52:43;18.30;99.90
23550;DHT22;11953;49.010;8.608;2022-07-15T04:55:30;18.30;99.90
23550;DHT22;11953;49.010;8.608;2022-07-15T04:58:21;18.20;99.90
23550;DHT22;11953;49.010;8.608;2022-07-15T05:01:10;18.20;99.90
23550;DHT22;11953;49.010;8.608;2022-07-15T05:03:58;18.80;99.90
23550;DHT22;11953;49.010;8.608;2022-07-15T05:06:45;19.00;99.90
23550;DHT22;11953;49.010;8.608;2022-07-15T05:09:33;18.80;99.90
23550;DHT22;11953;49.010;8.608;2022-07-15T05:12:20;18.90;99.90
23550;DHT22;11953;49.010;8.608;2022-07-15T05:15:15;18.70;99.90
23550;DHT22;11953;49.010;8.608;2022-07-15T05:18:04;18.50;99.90
23550;DHT22;11953;49.010;8.608;2022-07-15T05:20:51;18.70;99.90
23550;DHT22;11953;49.010;8.608;2022-07-15T05:23:41;18.80;99.90
23550;DHT22;11953;49.010;8.608;2022-07-15T05:26:48;19.10;99.90
23550;DHT22;11953;49.010;8.608;2022-07-15T05:29:35;19.70;99.90
23550;DHT22;11953;49.010;8.608;2022-07-15T05:32:22;20.20;99.90
23550;DHT22;11953;49.010;8.608;2022-07-15T05:35:12;20.50;99.90
23550;DHT22;11953;49.010;8.608;2022-07-15T05:38:03;20.90;99.90
23550;DHT22;11953;49.010;8.608;2022-07-15T05:40:53;21.10;99.90
23550;DHT22;11953;49.010;8.608;2022-07-15T05:43:43;21.50;99.90
23550;DHT22;11953;49.010;8.608;2022-07-15T05:46:30;22.00;99.90
23550;DHT22;11953;49.010;8.608;2022-07-15T05:49:22;22.30;99.90
23550;DHT22;11953;49.010;8.608;2022-07-15T05:52:13;23.10;99.90
23550;DHT22;11953;49.010;8.608;2022-07-15T05:55:01;23.80;98.90
23550;DHT22;11953;49.010;8.608;2022-07-15T05:57:49;23.90;98.40
23550;DHT22;11953;49.010;8.608;2022-07-15T06:00:40;24.10;97.80
23550;DHT22;11953;49.010;8.608;2022-07-15T06:03:44;24.40;97.00
23550;DHT22;11953;49.010;8.608;2022-07-15T06:06:34;24.90;96.60
23550;DHT22;11953;49.010;8.608;2022-07-15T06:09:23;24.90;96.80
23550;DHT22;11953;49.010;8.608;2022-07-15T06:12:12;24.90;96.20
23550;DHT22;11953;49.010;8.608;2022-07-15T06:14:59;25.10;96.30
23550;DHT22;11953;49.010;8.608;2022-07-15T06:17:47;25.10;95.80
23550;DHT22;11953;49.010;8.608;2022-07-15T06:20:37;25.00;96.60
23550;DHT22;11953;49.010;8.608;2022-07-15T06:23:24;25.60;94.50
23550;DHT22;11953;49.010;8.608;2022-07-15T06:26:12;26.20;92.90
23550;DHT22;11953;49.010;8.608;2022-07-15T06:29:00;26.60;91.50
23550;DHT22;11953;49.010;8.608;2022-07-15T06:31:47;26.40;91.50
23550;DHT22;11953;49.010;8.608;2022-07-15T06:34:34;26.60;90.60
23550;DHT22;11953;49.010;8.608;2022-07-15T06:37:22;26.90;89.20
23550;DHT22;11953;49.010;8.608;2022-07-15T06:40:09;27.50;88.30
23550;DHT22;11953;49.010;8.608;2022-07-15T06:42:57;27.80;85.20
23550;DHT22;11953;49.010;8.608;2022-07-15T06:46:04;27.60;84.10
23550;DHT22;11953;49.010;8.608;2022-07-15T06:48:51;27.30;83.30
23550;DHT22;11953;49.010;8.608;2022-07-15T06:51:38;28.10;83.20
23550;DHT22;11953;49.010;8.608;2022-07-15T06:54:25;28.00;81.50
23550;DHT22;11953;49.010;8.608;2022-07-15T06:57:12;27.80;80.70
23550;DHT22;11953;49.010;8.608;2022-07-15T07:00:08;28.20;79.70
23550;DHT22;11953;49.010;8.608;2022-07-15T07:02:57;28.60;80.60
23550;DHT22;11953;49.010;8.608;2022-07-15T07:05:45;29.10;77.80
23550;DHT22;11953;49.010;8.608;2022-07-15T07:08:32;29.50;75.40
23550;DHT22;11953;49.010;8.608;2022-07-15T07:11:20;29.70;72.10
23550;DHT22;11953;49.010;8.608;2022-07-15T07:14:07;29.50;71.10
23550;DHT22;11953;49.010;8.608;2022-07-15T07:16:59;29.20;70.90
23550;DHT22;11953;49.010;8.608;2022-07-15T07:19:45;29.20;70.00
23550;DHT22;11953;49.010;8.608;2022-07-15T07:22:32;29.60;68.80
23550;DHT22;11953;49.010;8.608;2022-07-15T07:25:19;29.40;68.60
23550;DHT22;11953;49.010;8.608;2022-07-15T07:28:06;29.80;67.20
23550;DHT22;11953;49.010;8.608;2022-07-15T07:30:52;30.60;67.70
23550;DHT22;11953;49.010;8.608;2022-07-15T07:33:42;30.30;65.80
23550;DHT22;11953;49.010;8.608;2022-07-15T07:36:28;30.30;65.10
23550;DHT22;11953;49.010;8.608;2022-07-15T07:39:15;30.40;65.50
23550;DHT22;11953;49.010;8.608;2022-07-15T07:42:02;30.50;64.80
23550;DHT22;11953;49.010;8.608;2022-07-15T07:44:49;30.10;64.30
23550;DHT22;11953;49.010;8.608;2022-07-15T07:47:37;29.60;65.00
23550;DHT22;11953;49.010;8.608;2022-07-15T07:50:27;30.10;64.90
23550;DHT22;11953;49.010;8.608;2022-07-15T07:53:14;30.40;64.10
23550;DHT22;11953;49.010;8.608;2022-07-15T07:56:02;30.70;62.50
23550;DHT22;11953;49.010;8.608;2022-07-15T07:58:49;31.60;63.20
23550;DHT22;11953;49.010;8.608;2022-07-15T08:01:36;31.80;61.30
23550;DHT22;11953;49.010;8.608;2022-07-15T08:04:23;32.00;61.40
23550;DHT22;11953;49.010;8.608;2022-07-15T08:07:12;31.70;60.30
23550;DHT22;11953;49.010;8.608;2022-07-15T08:09:58;31.20;59.70
23550;DHT22;11953;49.010;8.608;2022-07-15T08:12:46;30.80;60.40
23550;DHT22;11953;49.010;8.608;2022-07-15T08:15:33;31.00;58.60
23550;DHT22;11953;49.010;8.608;2022-07-15T08:18:20;30.90;57.60
23550;DHT22;11953;49.010;8.608;2022-07-15T08:21:07;30.00;59.90
23550;DHT22;11953;49.010;8.608;2022-07-15T08:23:55;30.70;59.00
23550;DHT22;11953;49.010;8.608;2022-07-15T08:26:42;31.30;57.90
23550;DHT22;11953;49.010;8.608;2022-07-15T08:29:29;31.40;59.80
23550;DHT22;11953;49.010;8.608;2022-07-15T08:32:15;31.90;58.80
23550;DHT22;11953;49.010;8.608;2022-07-15T08:35:02;31.70;57.20
23550;DHT22;11953;49.010;8.608;2022-07-15T08:37:56;32.00;56.40
23550;DHT22;11953;49.010;8.608;2022-07-15T08:40:44;32.20;58.00
23550;DHT22;11953;49.010;8.608;2022-07-15T08:43:31;32.50;55.20
23550;DHT22;11953;49.010;8.608;2022-07-15T08:46:19;32.70;56.80
23550;DHT22;11953;49.010;8.608;2022-07-15T08:49:08;32.40;55.10
23550;DHT22;11953;49.010;8.608;2022-07-15T08:51:58;33.00;53.80
23550;DHT22;11953;49.010;8.608;2022-07-15T08:54:45;32.90;52.90
23550;DHT22;11953;49.010;8.608;2022-07-15T08:57:34;32.60;53.50
23550;DHT22;11953;49.010;8.608;2022-07-15T09:00:26;30.50;53.60
23550;DHT22;11953;49.010;8.608;2022-07-15T09:03:15;31.20;53.70
23550;DHT22;11953;49.010;8.608;2022-07-15T09:06:02;32.00;54.10
23550;DHT22;11953;49.010;8.608;2022-07-15T09:08:49;32.30;55.00
23550;DHT22;11953;49.010;8.608;2022-07-15T09:11:36;32.90;55.50
23550;DHT22;11953;49.010;8.608;2022-07-15T09:14:26;33.30;55.10
23550;DHT22;11953;49.010;8.608;2022-07-15T09:17:22;33.50;53.10
23550;DHT22;11953;49.010;8.608;2022-07-15T09:20:10;33.40;53.60
23550;DHT22;11953;49.010;8.608;2022-07-15T09:22:59;33.40;52.80
23550;DHT22;11953;49.010;8.608;2022-07-15T09:25:47;33.10;53.30
23550;DHT22;11953;49.010;8.608;2022-07-15T09:28:36;33.60;52.20
23550;DHT22;11953;49.010;8.608;2022-07-15T09:31:30;33.60;52.30
23550;DHT22;11953;49.010;8.608;2022-07-15T09:34:34;33.20;51.40
23550;DHT22;11953;49.010;8.608;2022-07-15T09:37:22;32.80;52.00
23550;DHT22;11953;49.010;8.608;2022-07-15T09:40:09;33.10;52.40
23550;DHT22;11953;49.010;8.608;2022-07-15T09:43:03;32.80;51.20
23550;DHT22;11953;49.010;8.608;2022-07-15T09:45:56;32.60;51.10
23550;DHT22;11953;49.010;8.608;2022-07-15T09:48:48;31.70;51.50
23550;DHT22;11953;49.010;8.608;2022-07-15T09:51:44;31.80;51.50
23550;DHT22;11953;49.010;8.608;2022-07-15T09:54:33;32.30;52.80
23550;DHT22;11953;49.010;8.608;2022-07-15T09:57:20;32.60;53.00
23550;DHT22;11953;49.010;8.608;2022-07-15T10:00:08;33.10;52.20
23550;DHT22;11953;49.010;8.608;2022-07-15T10:02:54;32.40;51.10
23550;DHT22;11953;49.010;8.608;2022-07-15T10:05:43;32.30;51.90
23550;DHT22;11953;49.010;8.608;2022-07-15T10:08:33;32.80;53.40
23550;DHT22;11953;49.010;8.608;2022-07-15T10:11:20;32.90;52.70
23550;DHT22;11953;49.010;8.608;2022-07-15T10:14:31;33.10;52.30
23550;DHT22;11953;49.010;8.608;2022-07-15T10:17:29;33.30;52.10
23550;DHT22;11953;49.010;8.608;2022-07-15T10:20:40;33.70;52.40
23550;DHT22;11953;49.010;8.608;2022-07-15T10:23:42;33.80;52.40
23550;DHT22;11953;49.010;8.608;2022-07-15T10:26:43;33.30;50.60
23550;DHT22;11953;49.010;8.608;2022-07-15T10:29:34;33.50;52.50
23550;DHT22;11953;49.010;8.608;2022-07-15T10:32:22;33.50;50.40
23550;DHT22;11953;49.010;8.608;2022-07-15T10:35:33;32.50;50.40
23550;DHT22;11953;49.010;8.608;2022-07-15T10:38:26;32.80;52.30
23550;DHT22;11953;49.010;8.608;2022-07-15T10:41:15;33.20;50.70
23550;DHT22;11953;49.010;8.608;2022-07-15T10:44:09;33.30;50.90
23550;DHT22;11953;49.010;8.608;2022-07-15T10:47:18;33.20;52.40
23550;DHT22;11953;49.010;8.608;2022-07-15T10:50:34;33.50;52.30
23550;DHT22;11953;49.010;8.608;2022-07-15T10:53:23;33.70;51.90
23550;DHT22;11953;49.010;8.608;2022-07-15T10:56:27;33.70;50.70
23550;DHT22;11953;49.010;8.608;2022-07-15T10:59:17;33.60;50.60
23550;DHT22;11953;49.010;8.608;2022-07-15T11:02:13;33.70;51.60
23550;DHT22;11953;49.010;8.608;2022-07-15T11:05:18;33.60;50.30
23550;DHT22;11953;49.010;8.608;2022-07-15T11:08:47;33.50;51.10
23550;DHT22;11953;49.010;8.608;2022-07-15T11:11:49;33.30;51.70
23550;DHT22;11953;49.010;8.608;2022-07-15T11:14:44;33.30;50.90
23550;DHT22;11953;49.010;8.608;2022-07-15T11:17:39;33.20;51.60
23550;DHT22;11953;49.010;8.608;2022-07-15T11:20:32;33.40;51.80
23550;DHT22;11953;49.010;8.608;2022-07-15T11:23:19;33.70;50.80
23550;DHT22;11953;49.010;8.608;2022-07-15T11:26:15;33.50;49.80
23550;DHT22;11953;49.010;8.608;2022-07-15T11:29:04;33.30;50.60
23550;DHT22;11953;49.010;8.608;2022-07-15T11:31:51;33.40;51.60
23550;DHT22;11953;49.010;8.608;2022-07-15T11:34:40;33.60;50.80
23550;DHT22;11953;49.010;8.608;2022-07-15T11:37:30;32.80;49.00
23550;DHT22;11953;49.010;8.608;2022-07-15T11:40:18;32.50;50.50
23550;DHT22;11953;49.010;8.608;2022-07-15T11:43:19;32.80;50.70
23550;DHT22;11953;49.010;8.608;2022-07-15T11:46:26;32.60;50.10
23550;DHT22;11953;49.010;8.608;2022-07-15T11:49:25;32.50;50.60
23550;DHT22;11953;49.010;8.608;2022-07-15T11:52:22;32.80;51.30
23550;DHT22;11953;49.010;8.608;2022-07-15T11:55:09;32.70;50.80
23550;DHT22;11953;49.010;8.608;2022-07-15T11:57:56;32.70;51.00
23550;DHT22;11953;49.010;8.608;2022-07-15T12:00:48;32.50;50.20
23550;DHT22;11953;49.010;8.608;2022-07-15T12:03:39;32.30;51.30
23550;DHT22;11953;49.010;8.608;2022-07-15T12:06:28;31.50;50.90
23550;DHT22;11953;49.010;8.608;2022-07-15T12:09:15;31.40;51.10
23550;DHT22;11953;49.010;8.608;2022-07-15T12:12:02;31.30;50.90
23550;DHT22;11953;49.010;8.608;2022-07-15T12:14:50;31.30;50.30
23550;DHT22;11953;49.010;8.608;2022-07-15T12:17:37;31.10;51.10
23550;DHT22;11953;49.010;8.608;2022-07-15T12:20:28;30.70;51.30
23550;DHT22;11953;49.010;8.608;2022-07-15T12:23:17;30.40;51.70
23550;DHT22;11953;49.010;8.608;2022-07-15T12:26:07;29.90;52.60
23550;DHT22;11953;49.010;8.608;2022-07-15T12:28:55;30.10;51.70
23550;DHT22;11953;49.010;8.608;2022-07-15T12:31:42;29.80;52.10
23550;DHT22;11953;49.010;8.608;2022-07-15T12:34:52;29.90;51.70
23550;DHT22;11953;49.010;8.608;2022-07-15T12:37:50;29.80;51.40
23550;DHT22;11953;49.010;8.608;2022-07-15T12:40:36;29.70;51.70
23550;DHT22;11953;49.010;8.608;2022-07-15T12:43:49;29.90;51.90
23550;DHT22;11953;49.010;8.608;2022-07-15T12:46:54;29.80;51.40
23550;DHT22;11953;49.010;8.608;2022-07-15T12:49:51;29.60;53.70
23550;DHT22;11953;49.010;8.608;2022-07-15T12:52:39;29.70;52.80
23550;DHT22;11953;49.010;8.608;2022-07-15T12:55:32;29.60;51.90
23550;DHT22;11953;49.010;8.608;2022-07-15T12:58:23;29.50;51.60
23550;DHT22;11953;49.010;8.608;2022-07-15T13:01:12;29.40;52.50
23550;DHT22;11953;49.010;8.608;2022-07-15T13:04:00;29.20;51.90
23550;DHT22;11953;49.010;8.608;2022-07-15T13:06:47;29.10;52.50
23550;DHT22;11953;49.010;8.608;2022-07-15T13:09:33;28.90;51.80
23550;DHT22;11953;49.010;8.608;2022-07-15T13:12:22;28.80;52.10
23550;DHT22;11953;49.010;8.608;2022-07-15T13:15:09;28.80;51.80
23550;DHT22;11953;49.010;8.608;2022-07-15T13:17:57;28.80;52.20
23550;DHT22;11953;49.010;8.608;2022-07-15T13:20:44;28.80;52.90
23550;DHT22;11953;49.010;8.608;2022-07-15T13:23:32;28.70;52.20
23550;DHT22;11953;49.010;8.608;2022-07-15T13:26:19;28.50;52.50
23550;DHT22;11953;49.010;8.608;2022-07-15T13:29:08;28.40;52.30
23550;DHT22;11953;49.010;8.608;2022-07-15T13:31:54;28.50;52.00
23550;DHT22;11953;49.010;8.608;2022-07-15T13:34:41;28.50;52.70
23550;DHT22;11953;49.010;8.608;2022-07-15T13:37:28;28.50;54.20
23550;DHT22;11953;49.010;8.608;2022-07-15T13:40:15;28.50;52.90
23550;DHT22;11953;49.010;8.608;2022-07-15T13:43:02;28.30;53.70
23550;DHT22;11953;49.010;8.608;2022-07-15T13:45:50;28.30;53.20
23550;DHT22;11953;49.010;8.608;2022-07-15T13:48:37;28.20;52.30
23550;DHT22;11953;49.010;8.608;2022-07-15T13:51:24;28.20;52.50
23550;DHT22;11953;49.010;8.608;2022-07-15T13:54:10;27.80;54.40
23550;DHT22;11953;49.010;8.608;2022-07-15T13:56:58;27.80;54.00
23550;DHT22;11953;49.010;8.608;2022-07-15T13:59:45;27.90;54.00
23550;DHT22;11953;49.010;8.608;2022-07-15T14:02:33;28.00;54.80
23550;DHT22;11953;49.010;8.608;2022-07-15T14:05:21;28.20;54.20
23550;DHT22;11953;49.010;8.608;2022-07-15T14:08:08;28.20;53.70
23550;DHT22;11953;49.010;8.608;2022-07-15T14:10:55;28.20;53.90
23550;DHT22;11953;49.010;8.608;2022-07-15T14:13:42;28.20;54.50
23550;DHT22;11953;49.010;8.608;2022-07-15T14:16:29;28.10;54.00
23550;DHT22;11953;49.010;8.608;2022-07-15T14:19:17;28.10;54.20
23550;DHT22;11953;49.010;8.608;2022-07-15T14:22:04;28.00;53.80
23550;DHT22;11953;49.010;8.608;2022-07-15T14:24:51;28.00;54.30
23550;DHT22;11953;49.010;8.608;2022-07-15T14:27:38;28.00;54.30
23550;DHT22;11953;49.010;8.608;2022-07-15T14:30:25;28.00;54.50
23550;DHT22;11953;49.010;8.608;2022-07-15T14:33:12;27.90;53.90
23550;DHT22;11953;49.010;8.608;2022-07-15T14:36:00;28.00;54.80
23550;DHT22;11953;49.010;8.608;2022-07-15T14:38:47;27.90;53.30
23550;DHT22;11953;49.010;8.608;2022-07-15T14:41:35;27.90;54.50
23550;DHT22;11953;49.010;8.608;2022-07-15T14:44:21;28.00;54.70
23550;DHT22;11953;49.010;8.608;2022-07-15T14:47:08;28.00;54.90
23550;DHT22;11953;49.010;8.608;2022-07-15T14:49:55;28.00;55.10
23550;DHT22;11953;49.010;8.608;2022-07-15T14:52:43;28.00;54.60
23550;DHT22;11953;49.010;8.608;2022-07-15T14:55:30;27.90;54.60
23550;DHT22;11953;49.010;8.608;2022-07-15T14:58:17;28.00;54.50
23550;DHT22;11953;49.010;8.608;2022-07-15T15:01:05;27.90;55.80
23550;DHT22;11953;49.010;8.608;2022-07-15T15:03:51;27.80;55.30
23550;DHT22;11953;49.010;8.608;2022-07-15T15:06:38;27.80;54.80
23550;DHT22;11953;49.010;8.608;2022-07-15T15:09:27;27.80;55.70
23550;DHT22;11953;49.010;8.608;2022-07-15T15:12:14;27.70;54.90
23550;DHT22;11953;49.010;8.608;2022-07-15T15:15:01;27.70;56.10
23550;DHT22;11953;49.010;8.608;2022-07-15T15:17:48;27.60;55.50
23550;DHT22;11953;49.010;8.608;2022-07-15T15:20:35;27.50;56.10
23550;DHT22;11953;49.010;8.608;2022-07-15T15:23:21;27.50;56.00
23550;DHT22;11953;49.010;8.608;2022-07-15T15:26:10;27.60;55.60
23550;DHT22;11953;49.010;8.608;2022-07-15T15:29:10;27.50;55.40
23550;DHT22;11953;49.010;8.608;2022-07-15T15:31:57;27.50;55.40
23550;DHT22;11953;49.010;8.608;2022-07-15T15:34:44;27.50;55.00
23550;DHT22;11953;49.010;8.608;2022-07-15T15:37:31;27.50;56.10
23550;DHT22;11953;49.010;8.608;2022-07-15T15:40:18;27.40;55.20
23550;DHT22;11953;49.010;8.608;2022-07-15T15:43:06;27.30;55.20
23550;DHT22;11953;49.010;8.608;2022-07-15T15:45:53;27.30;56.50
23550;DHT22;11953;49.010;8.608;2022-07-15T15:48:40;27.30;56.00
23550;DHT22;11953;49.010;8.608;2022-07-15T15:51:27;27.20;56.30
23550;DHT22;11953;49.010;8.608;2022-07-15T15:54:14;27.20;57.00
23550;DHT22;11953;49.010;8.608;2022-07-15T15:57:06;27.20;56.10
23550;DHT22;11953;49.010;8.608;2022-07-15T15:59:54;27.20;56.30
23550;DHT22;11953;49.010;8.608;2022-07-15T16:02:41;27.10;55.70
23550;DHT22;11953;49.010;8.608;2022-07-15T16:05:29;27.20;56.00
23550;DHT22;11953;49.010;8.608;2022-07-15T16:08:16;27.20;56.60
23550;DHT22;11953;49.010;8.608;2022-07-15T16:11:03;27.10;56.60
23550;DHT22;11953;49.010;8.608;2022-07-15T16:13:50;27.00;56.60
23550;DHT22;11953;49.010;8.608;2022-07-15T16:16:38;27.00;56.40
23550;DHT22;11953;49.010;8.608;2022-07-15T16:19:26;27.10;56.10
23550;DHT22;11953;49.010;8.608;2022-07-15T16:22:13;27.10;56.90
23550;DHT22;11953;49.010;8.608;2022-07-15T16:25:18;27.20;56.40
23550;DHT22;11953;49.010;8.608;2022-07-15T16:28:07;27.10;55.40
23550;DHT22;11953;49.010;8.608;2022-07-15T16:30:56;27.10;56.90
23550;DHT22;11953;49.010;8.608;2022-07-15T16:33:44;27.00;57.00
23550;DHT22;11953;49.010;8.608;2022-07-15T16:36:31;26.80;56.80
23550;DHT22;11953;49.010;8.608;2022-07-15T16:39:18;26.80;56.90
23550;DHT22;11953;49.010;8.608;2022-07-15T16:42:04;26.80;57.00
23550;DHT22;11953;49.010;8.608;2022-07-15T16:44:51;26.70;56.80
23550;DHT22;11953;49.010;8.608;2022-07-15T16:47:38;26.80;56.40
23550;DHT22;11953;49.010;8.608;2022-07-15T16:50:26;26.70;56.80
23550;DHT22;11953;49.010;8.608;2022-07-15T16:53:13;26.60;56.40
23550;DHT22;11953;49.010;8.608;2022-07-15T16:56:00;26.60;57.50
23550;DHT22;11953;49.010;8.608;2022-07-15T16:58:46;26.60;58.20
23550;DHT22;11953;49.010;8.608;2022-07-15T17:01:33;26.60;57.10
23550;DHT22;11953;49.010;8.608;2022-07-15T17:04:20;26.60;56.60
23550;DHT22;11953;49.010;8.608;2022-07-15T17:07:08;26.60;57.10
23550;DHT22;11953;49.010;8.608;2022-07-15T17:09:55;26.50;57.30
23550;DHT22;11953;49.010;8.608;2022-07-15T17:12:42;26.40;57.80
23550;DHT22;11953;49.010;8.608;2022-07-15T17:15:29;26.40;57.60
23550;DHT22;11953;49.010;8.608;2022-07-15T17:18:16;26.40;57.10
23550;DHT22;11953;49.010;8.608;2022-07-15T17:21:03;26.40;57.40
23550;DHT22;11953;49.010;8.608;2022-07-15T17:23:51;26.40;57.30
23550;DHT22;11953;49.010;8.608;2022-07-15T17:26:38;26.30;57.30
23550;DHT22;11953;49.010;8.608;2022-07-15T17:29:25;26.20;57.60
23550;DHT22;11953;49.010;8.608;2022-07-15T17:32:12;26.20;57.00
23550;DHT22;11953;49.010;8.608;2022-07-15T17:34:58;26.20;57.00
23550;DHT22;11953;49.010;8.608;2022-07-15T17:37:45;26.10;56.70
23550;DHT22;11953;49.010;8.608;2022-07-15T17:40:33;26.10;57.80
23550;DHT22;11953;49.010;8.608;2022-07-15T17:43:20;26.10;57.90
23550;DHT22;11953;49.010;8.608;2022-07-15T17:46:08;26.10;58.10
23550;DHT22;11953;49.010;8.608;2022-07-15T17:48:54;26.00;58.00